createdAt,value
2018-05-02T02:49:55.446Z,9.00
2018-05-02T06:51:48.218Z,12.10
2018-05-02T06:54:17.178Z,12.20
2018-05-02T07:01:45.221Z,12.40
2018-05-02T12:53:32.016Z,15.60
2018-05-02T12:55:59.574Z,15.60
2018-05-02T12:58:27.255Z,15.60
2018-05-02T13:00:54.863Z,15.70
2018-05-02T13:03:22.725Z,15.60
2018-05-02T13:05:50.382Z,15.70
2018-05-02T13:08:17.995Z,15.70
2018-05-02T13:10:45.688Z,15.70
2018-05-02T13:13:13.299Z,15.70
2018-05-02T13:15:40.952Z,15.70
2018-05-02T13:18:08.412Z,15.80
2018-05-02T13:20:36.111Z,15.90
2018-05-02T13:23:03.704Z,16.00
2018-05-02T13:25:32.491Z,16.10
2018-05-02T13:27:59.994Z,16.10
2018-05-02T13:30:28.187Z,16.10
2018-05-02T13:32:57.592Z,16.20
2018-05-02T13:35:25.852Z,16.30
2018-05-02T13:37:53.619Z,16.40
2018-05-02T13:40:22.064Z,16.70
2018-05-02T13:42:49.565Z,16.70
2018-05-02T13:45:17.105Z,16.80
2018-05-02T13:47:44.696Z,16.90
2018-05-02T13:50:12.327Z,17.00
2018-05-02T13:52:40.737Z,17.20
2018-05-02T13:55:08.241Z,17.20
2018-05-02T13:57:36.077Z,17.30
2018-05-02T14:00:03.587Z,17.40
2018-05-02T14:02:31.423Z,17.50
2018-05-02T14:04:58.920Z,17.50
2018-05-02T14:07:26.678Z,17.70
2018-05-02T14:09:54.162Z,17.90
2018-05-02T14:12:21.686Z,18.00
2018-05-02T14:14:49.937Z,18.20
2018-05-02T14:17:17.555Z,18.20
2018-05-02T14:19:45.949Z,18.30
2018-05-02T14:22:14.249Z,18.20
2018-05-02T14:24:41.775Z,18.20
2018-05-02T14:27:09.289Z,18.10
2018-05-02T14:29:36.999Z,18.10
2018-05-02T14:32:04.538Z,18.20
2018-05-02T14:34:32.099Z,18.10
2018-05-02T14:36:59.912Z,18.10
2018-05-02T14:39:27.447Z,18.00
2018-05-02T14:41:55.384Z,18.00
2018-05-02T14:44:22.923Z,18.00
2018-05-02T14:46:50.535Z,17.90
2018-05-02T14:49:18.149Z,17.90
2018-05-02T14:51:45.747Z,18.00
2018-05-02T14:54:13.254Z,18.00
2018-05-02T14:56:40.820Z,18.00
2018-05-02T14:59:08.396Z,17.90
2018-05-02T15:01:36.528Z,17.90
2018-05-02T15:04:04.272Z,17.90
2018-05-02T15:06:31.990Z,17.90
2018-05-02T15:08:59.622Z,17.90
2018-05-02T15:11:27.968Z,18.00
2018-05-02T15:13:56.523Z,17.90
2018-05-02T15:16:24.206Z,18.00
2018-05-02T15:18:51.751Z,18.00
2018-05-02T15:21:20.067Z,18.00
2018-05-02T15:23:47.713Z,18.00
2018-05-02T15:26:16.142Z,18.00
2018-05-02T15:28:43.894Z,18.00
2018-05-02T15:31:12.143Z,18.00
2018-05-02T15:33:39.679Z,17.90
2018-05-02T15:36:07.183Z,17.90
2018-05-02T15:38:34.747Z,17.80
2018-05-02T15:41:02.494Z,17.80
2018-05-02T15:43:30.201Z,17.80
2018-05-02T15:45:57.944Z,17.90
2018-05-02T15:48:25.644Z,17.80
2018-05-02T15:50:53.198Z,17.80
2018-05-02T15:53:20.803Z,17.80
2018-05-02T15:55:48.423Z,17.80
2018-05-02T15:58:16.057Z,17.70
2018-05-02T16:00:43.777Z,17.70
2018-05-02T16:03:11.363Z,17.70
2018-05-02T16:05:39.451Z,17.70
2018-05-02T16:08:07.212Z,17.60
2018-05-02T16:10:35.133Z,17.60
2018-05-02T16:13:02.844Z,17.60
2018-05-02T16:15:31.719Z,17.60
2018-05-02T16:18:00.166Z,17.60
2018-05-02T16:20:28.359Z,17.60
2018-05-02T16:22:57.061Z,17.50
2018-05-02T16:25:25.062Z,17.50
2018-05-02T16:27:52.933Z,17.40
2018-05-02T16:30:21.361Z,17.30
2018-05-02T16:32:50.187Z,17.20
2018-05-02T16:35:18.165Z,17.20
2018-05-02T16:37:47.287Z,17.20
2018-05-02T16:40:16.273Z,17.20
2018-05-02T16:42:45.005Z,17.10
2018-05-02T16:45:13.842Z,17.10
2018-05-02T16:47:42.811Z,17.10
2018-05-02T16:50:11.296Z,17.10
2018-05-02T16:52:39.493Z,17.00
2018-05-02T16:55:07.749Z,17.00
2018-05-02T16:57:36.657Z,16.90
2018-05-02T17:00:05.450Z,16.90
2018-05-02T17:02:34.075Z,16.80
2018-05-02T17:05:01.856Z,16.80
2018-05-02T17:07:29.567Z,16.80
2018-05-02T17:09:57.207Z,16.70
2018-05-02T17:12:25.236Z,16.70
2018-05-02T17:14:53.272Z,16.70
2018-05-02T17:17:21.129Z,16.60
2018-05-02T17:19:48.791Z,16.60
2018-05-02T17:22:18.660Z,16.50
2018-05-02T17:24:47.134Z,16.50
2018-05-02T17:27:15.444Z,16.40
2018-05-02T17:29:43.763Z,16.40
2018-05-02T17:32:11.383Z,16.40
2018-05-02T17:34:39.428Z,16.30
2018-05-02T17:37:08.377Z,16.30
2018-05-02T17:39:36.157Z,16.30
2018-05-02T17:42:03.958Z,16.20
2018-05-02T17:44:31.641Z,16.20
2018-05-02T17:47:01.290Z,16.20
2018-05-02T17:49:29.113Z,16.20
2018-05-02T17:51:57.019Z,16.10
2018-05-02T17:54:25.577Z,16.10
2018-05-02T17:56:53.212Z,16.00
2018-05-02T17:59:22.524Z,16.00
2018-05-02T18:01:51.334Z,16.00
2018-05-02T18:04:19.658Z,15.90
2018-05-02T18:06:48.869Z,15.90
2018-05-02T18:09:16.986Z,15.90
2018-05-02T18:11:45.190Z,15.90
2018-05-02T18:14:14.137Z,15.80
2018-05-02T18:16:42.005Z,15.80
2018-05-02T18:19:10.023Z,15.80
2018-05-02T18:21:38.401Z,15.80
2018-05-02T18:24:06.828Z,15.80
2018-05-02T18:26:35.154Z,15.80
2018-05-02T18:29:03.299Z,15.80
2018-05-02T18:31:32.119Z,15.80
2018-05-02T18:34:01.118Z,15.70
2018-05-02T18:36:30.232Z,15.70
2018-05-02T18:38:59.541Z,15.80
2018-05-02T18:41:28.930Z,15.70
2018-05-02T18:43:57.913Z,15.70
2018-05-02T18:46:26.031Z,15.70
2018-05-02T18:48:55.304Z,15.60
2018-05-02T18:51:24.572Z,15.60
2018-05-02T18:53:54.113Z,15.60
2018-05-02T18:56:22.640Z,15.60
2018-05-02T18:58:51.430Z,15.60
2018-05-02T19:01:19.658Z,15.50
2018-05-02T19:03:48.525Z,15.50
2018-05-02T19:06:17.007Z,15.40
2018-05-02T19:08:45.310Z,15.40
2018-05-02T19:11:14.814Z,15.30
2018-05-02T19:13:48.467Z,15.30
2018-05-02T19:16:17.774Z,15.30
2018-05-02T19:18:51.490Z,15.30
2018-05-02T19:21:20.034Z,15.20
2018-05-02T19:23:48.291Z,15.20
2018-05-02T19:26:22.074Z,15.10
2018-05-02T19:28:51.366Z,15.10
2018-05-02T19:31:25.546Z,15.10
2018-05-02T19:33:54.138Z,15.10
2018-05-02T19:36:23.226Z,15.10
2018-05-02T19:38:51.551Z,15.00
2018-05-02T19:41:26.012Z,15.00
2018-05-02T19:44:00.138Z,15.00
2018-05-02T19:46:30.147Z,15.00
2018-05-02T19:48:59.318Z,15.00
2018-05-02T19:51:33.526Z,15.00
2018-05-02T19:54:02.109Z,15.00
2018-05-02T19:56:30.400Z,15.00
2018-05-02T19:58:58.459Z,14.90
2018-05-02T20:01:32.561Z,14.90
2018-05-02T20:04:01.133Z,14.90
2018-05-02T20:06:29.431Z,14.90
2018-05-02T20:09:03.133Z,14.90
2018-05-02T20:11:36.633Z,14.90
2018-05-02T20:14:05.969Z,14.90
2018-05-02T20:16:35.140Z,14.90
2018-05-02T20:19:03.959Z,14.90
2018-05-02T20:21:32.347Z,14.90
2018-05-02T20:24:01.706Z,14.90
2018-05-02T20:26:31.098Z,14.80
2018-05-02T20:28:59.666Z,14.80
2018-05-02T20:31:28.200Z,14.80
2018-05-02T20:33:56.960Z,14.80
2018-05-02T20:36:25.949Z,14.80
2018-05-02T20:38:53.770Z,14.80
2018-05-02T20:41:21.625Z,14.80
2018-05-02T20:43:49.871Z,14.80
2018-05-02T20:46:17.791Z,14.80
2018-05-02T20:48:45.660Z,14.80
2018-05-02T20:51:13.328Z,14.70
2018-05-02T20:53:41.038Z,14.70
2018-05-02T20:56:09.262Z,14.70
2018-05-02T20:58:37.873Z,14.70
2018-05-02T21:01:05.546Z,14.60
2018-05-02T21:03:33.112Z,14.60
2018-05-02T21:06:00.784Z,14.60
2018-05-02T21:08:28.474Z,14.60
2018-05-02T21:10:56.072Z,14.60
2018-05-02T21:13:23.788Z,14.60
2018-05-02T21:15:51.781Z,14.60
2018-05-02T21:18:20.196Z,14.50
2018-05-02T21:20:47.894Z,14.50
2018-05-02T21:23:15.451Z,14.50
2018-05-02T21:25:43.101Z,14.50
2018-05-02T21:28:10.683Z,14.40
2018-05-02T21:30:38.331Z,14.40
2018-05-02T21:33:06.717Z,14.40
2018-05-02T21:35:35.346Z,14.40
2018-05-02T21:38:02.922Z,14.40
2018-05-02T21:40:31.753Z,14.40
2018-05-02T21:43:00.729Z,14.40
2018-05-02T21:45:28.430Z,14.30
2018-05-02T21:47:56.023Z,14.30
2018-05-02T21:50:23.756Z,14.30
2018-05-02T21:52:51.302Z,14.40
2018-05-02T21:55:19.613Z,14.40
2018-05-02T21:57:47.164Z,14.30
2018-05-02T22:00:14.763Z,14.40
2018-05-02T22:02:42.313Z,14.30
2018-05-02T22:05:10.920Z,14.30
2018-05-02T22:07:38.634Z,14.30
2018-05-02T22:10:06.267Z,14.30
2018-05-02T22:12:33.789Z,14.30
2018-05-02T22:15:01.330Z,14.30
2018-05-02T22:17:28.837Z,14.30
2018-05-02T22:19:56.437Z,14.30
2018-05-02T22:22:24.195Z,14.30
2018-05-02T22:24:51.925Z,14.30
2018-05-02T22:27:19.606Z,14.30
2018-05-02T22:29:47.133Z,14.30
2018-05-02T22:32:14.763Z,14.30
2018-05-02T22:34:42.435Z,14.20
2018-05-02T22:37:10.025Z,14.20
2018-05-02T22:39:37.630Z,14.20
2018-05-02T22:42:05.203Z,14.20
2018-05-02T22:44:32.683Z,14.20
2018-05-02T22:47:00.219Z,14.20
2018-05-02T22:49:28.670Z,14.20
2018-05-02T22:51:56.371Z,14.20
2018-05-02T22:54:24.214Z,14.20
2018-05-02T22:56:51.832Z,14.20
2018-05-02T22:59:20.090Z,14.20
2018-05-02T23:01:47.626Z,14.20
2018-05-02T23:04:15.241Z,14.20
2018-05-02T23:06:42.844Z,14.10
2018-05-02T23:09:10.722Z,14.10
2018-05-02T23:11:39.068Z,14.10
2018-05-02T23:14:06.615Z,14.10
2018-05-02T23:16:35.082Z,14.10
2018-05-02T23:19:03.384Z,14.10
2018-05-02T23:21:30.962Z,14.10
2018-05-02T23:23:58.622Z,14.10
2018-05-02T23:26:26.105Z,14.10
2018-05-02T23:28:53.666Z,14.10
2018-05-02T23:31:21.389Z,14.10
2018-05-02T23:33:48.924Z,14.10
2018-05-02T23:36:16.571Z,14.00
2018-05-02T23:38:44.852Z,14.00
2018-05-02T23:41:12.412Z,14.00
2018-05-02T23:43:39.997Z,14.00
2018-05-02T23:46:08.262Z,13.90
2018-05-02T23:48:35.851Z,13.90
2018-05-02T23:51:03.425Z,13.90
2018-05-02T23:53:31.029Z,13.90
2018-05-02T23:55:58.709Z,13.90
2018-05-02T23:58:26.314Z,13.90
